PWSweather.com
Personal Weather Stations
Station Observations
KNMFARMI31
Near Jackson Lake, Farmington, NM 87401

Near Jackson LakeFarmington, NM 87401

Lat: 36.821, Lon: -108.225

Elevation: 5482

Station Type: Davis Vantange Vue

Latest ConditionsUpdated 1:49:04 AM MDT Thursday, Jul 18, 2019
Currently Today's Max Today's Min Today's Average
Temperature 64.3°F17.9°C 69.5°F20.8°C 64.3°F17.9°C 67.4°F19.7°C
Dew Point 36.8°F2.7°C 37.8°F3.2°C 35.2°F1.8°C 36.4°F2.4°C
Winds 2.0 mph NW3.2 kmh NW 7.0 mph -11.3 kmh - - 1.0 mph 1.6 kmh
Wind Gusts 2.0 mph3.2 kmh 8.0 mph12.9 kmh - -
Humidity 36% 36% 30% 32%
Pressure 29.17 in987.8 mb 29.18 in988.1 mb 29.16 in987.5 mb -
Hour Temp Dew Point Humidity Winds Wind Gusts Pressure Precip Precip Rate Daily Precip Total
01:49 AM 64.3°F17.9°C 36.8°F2.7°C 36% 2.0 mph NW3.2 kmh NW 2.0 mph3.2 kmh 29.17 in987.8 mb 0.00 in0.0 mm 0.00 in0.0 mm 0.00 in0.0 mm
01:48 AM 64.4°F18.0°C 36.9°F2.7°C 36% 1.0 mph WNW1.6 kmh WNW 2.0 mph3.2 kmh 29.17 in987.8 mb 0.00 in0.0 mm 0.00 in0.0 mm 0.00 in0.0 mm
01:47 AM 64.5°F18.1°C 37.0°F2.8°C 36% 1.0 mph WNW1.6 kmh WNW 2.0 mph3.2 kmh 29.17 in987.8 mb 0.00 in0.0 mm 0.00 in0.0 mm 0.00 in0.0 mm
01:46 AM 64.8°F18.2°C 37.2°F2.9°C 36% Calm Calm 2.0 mph3.2 kmh 29.17 in987.8 mb 0.00 in0.0 mm 0.00 in0.0 mm 0.00 in0.0 mm
01:45 AM 65.1°F18.4°C 37.5°F3.1°C 36% 2.0 mph W3.2 kmh W 2.0 mph3.2 kmh 29.17 in987.8 mb 0.00 in0.0 mm 0.00 in0.0 mm 0.00 in0.0 mm
01:44 AM 65.3°F18.5°C 36.9°F2.7°C 35% Calm Calm 3.0 mph4.8 kmh 29.17 in987.8 mb 0.00 in0.0 mm 0.00 in0.0 mm 0.00 in0.0 mm
01:43 AM 65.4°F18.6°C 37.0°F2.8°C 35% Calm Calm 3.0 mph4.8 kmh 29.17 in987.8 mb 0.00 in0.0 mm 0.00 in0.0 mm 0.00 in0.0 mm
01:42 AM 65.5°F18.6°C 37.8°F3.2°C 36% Calm Calm 3.0 mph4.8 kmh 29.17 in987.8 mb 0.00 in0.0 mm 0.00 in0.0 mm 0.00 in0.0 mm
01:41 AM 65.6°F18.7°C 37.2°F2.9°C 35% Calm Calm 3.0 mph4.8 kmh 29.17 in987.8 mb 0.00 in0.0 mm 0.00 in0.0 mm 0.00 in0.0 mm
01:40 AM 65.8°F18.8°C 37.4°F3.0°C 35% Calm Calm 3.0 mph4.8 kmh 29.17 in987.8 mb 0.00 in0.0 mm 0.00 in0.0 mm 0.00 in0.0 mm
01:39 AM 65.9°F18.8°C 37.5°F3.1°C 35% Calm Calm 3.0 mph4.8 kmh 29.17 in987.8 mb 0.00 in0.0 mm 0.00 in0.0 mm 0.00 in0.0 mm
01:38 AM 66.2°F19.0°C 37.7°F3.2°C 35% Calm Calm 3.0 mph4.8 kmh 29.17 in987.8 mb 0.00 in0.0 mm 0.00 in0.0 mm 0.00 in0.0 mm
01:37 AM 66.5°F19.2°C 37.3°F2.9°C 34% Calm Calm 3.0 mph4.8 kmh 29.17 in987.8 mb 0.00 in0.0 mm 0.00 in0.0 mm 0.00 in0.0 mm
01:36 AM 66.8°F19.3°C 37.5°F3.1°C 34% 2.0 mph SE3.2 kmh SE 3.0 mph4.8 kmh 29.17 in987.8 mb 0.00 in0.0 mm 0.00 in0.0 mm 0.00 in0.0 mm
01:35 AM 67.1°F19.5°C 37.0°F2.8°C 33% 2.0 mph SE3.2 kmh SE 3.0 mph4.8 kmh 29.17 in987.8 mb 0.00 in0.0 mm 0.00 in0.0 mm 0.00 in0.0 mm
01:34 AM 67.5°F19.7°C 37.4°F3.0°C 33% 1.0 mph SE1.6 kmh SE 2.0 mph3.2 kmh 29.17 in987.8 mb 0.00 in0.0 mm 0.00 in0.0 mm 0.00 in0.0 mm
01:33 AM 67.8°F19.9°C 36.9°F2.7°C 32% 2.0 mph E3.2 kmh E 2.0 mph3.2 kmh 29.17 in987.8 mb 0.00 in0.0 mm 0.00 in0.0 mm 0.00 in0.0 mm
01:32 AM 68.0°F20.0°C 36.2°F2.3°C 31% Calm Calm 2.0 mph3.2 kmh 29.17 in987.8 mb 0.00 in0.0 mm 0.00 in0.0 mm 0.00 in0.0 mm
01:31 AM 68.0°F20.0°C 36.2°F2.3°C 31% 1.0 mph E1.6 kmh E 2.0 mph3.2 kmh 29.18 in988.1 mb 0.00 in0.0 mm 0.00 in0.0 mm 0.00 in0.0 mm
01:30 AM 68.0°F20.0°C 35.4°F1.9°C 30% Calm Calm 2.0 mph3.2 kmh 29.18 in988.1 mb 0.00 in0.0 mm 0.00 in0.0 mm 0.00 in0.0 mm
01:29 AM 68.0°F20.0°C 35.4°F1.9°C 30% Calm Calm 5.0 mph8.0 kmh 29.18 in988.1 mb 0.00 in0.0 mm 0.00 in0.0 mm 0.00 in0.0 mm
01:28 AM 68.1°F20.1°C 35.5°F1.9°C 30% Calm Calm 5.0 mph8.0 kmh 29.18 in988.1 mb 0.00 in0.0 mm 0.00 in0.0 mm 0.00 in0.0 mm
01:27 AM 68.1°F20.1°C 35.5°F1.9°C 30% Calm Calm 7.0 mph11.3 kmh 29.18 in988.1 mb 0.00 in0.0 mm 0.00 in0.0 mm 0.00 in0.0 mm
01:26 AM 68.1°F20.1°C 35.5°F1.9°C 30% Calm Calm 8.0 mph12.9 kmh 29.18 in988.1 mb 0.00 in0.0 mm 0.00 in0.0 mm 0.00 in0.0 mm
01:25 AM 68.0°F20.0°C 35.4°F1.9°C 30% Calm Calm 8.0 mph12.9 kmh 29.18 in988.1 mb 0.00 in0.0 mm 0.00 in0.0 mm 0.00 in0.0 mm
01:24 AM 67.9°F19.9°C 35.3°F1.8°C 30% Calm Calm 8.0 mph12.9 kmh 29.17 in987.8 mb 0.00 in0.0 mm 0.00 in0.0 mm 0.00 in0.0 mm
01:23 AM 67.8°F19.9°C 35.2°F1.8°C 30% Calm Calm 8.0 mph12.9 kmh 29.18 in988.1 mb 0.00 in0.0 mm 0.00 in0.0 mm 0.00 in0.0 mm
01:22 AM 67.6°F19.8°C 35.9°F2.2°C 31% Calm Calm 8.0 mph12.9 kmh 29.18 in988.1 mb 0.00 in0.0 mm 0.00 in0.0 mm 0.00 in0.0 mm
01:21 AM 67.4°F19.7°C 35.7°F2.1°C 31% Calm Calm 8.0 mph12.9 kmh 29.18 in988.1 mb 0.00 in0.0 mm 0.00 in0.0 mm 0.00 in0.0 mm
01:20 AM 67.1°F19.5°C 35.5°F1.9°C 31% 5.0 mph NW8.0 kmh NW 8.0 mph12.9 kmh 29.18 in988.1 mb 0.00 in0.0 mm 0.00 in0.0 mm 0.00 in0.0 mm
01:19 AM 66.8°F19.3°C 36.0°F2.2°C 32% 5.0 mph W8.0 kmh W 8.0 mph12.9 kmh 29.18 in988.1 mb 0.00 in0.0 mm 0.00 in0.0 mm 0.00 in0.0 mm
01:18 AM 66.6°F19.2°C 35.8°F2.1°C 32% 5.0 mph WNW8.0 kmh WNW 8.0 mph12.9 kmh 29.18 in988.1 mb 0.00 in0.0 mm 0.00 in0.0 mm 0.00 in0.0 mm
01:17 AM 66.4°F19.1°C 35.6°F2.0°C 32% 7.0 mph W11.3 kmh W 7.0 mph11.3 kmh 29.18 in988.1 mb 0.00 in0.0 mm 0.00 in0.0 mm 0.00 in0.0 mm
01:16 AM 66.4°F19.1°C 35.6°F2.0°C 32% 4.0 mph W6.4 kmh W 6.0 mph9.7 kmh 29.18 in988.1 mb 0.00 in0.0 mm 0.00 in0.0 mm 0.00 in0.0 mm
01:15 AM 66.4°F19.1°C 35.6°F2.0°C 32% 2.0 mph WNW3.2 kmh WNW 4.0 mph6.4 kmh 29.17 in987.8 mb 0.00 in0.0 mm 0.00 in0.0 mm 0.00 in0.0 mm
01:14 AM 66.4°F19.1°C 35.6°F2.0°C 32% 2.0 mph W3.2 kmh W 3.0 mph4.8 kmh 29.17 in987.8 mb 0.00 in0.0 mm 0.00 in0.0 mm 0.00 in0.0 mm
01:13 AM 66.3°F19.1°C 35.6°F2.0°C 32% 3.0 mph W4.8 kmh W 3.0 mph4.8 kmh 29.17 in987.8 mb 0.00 in0.0 mm 0.00 in0.0 mm 0.00 in0.0 mm
01:12 AM 66.3°F19.1°C 36.3°F2.4°C 33% 1.0 mph WSW1.6 kmh WSW 1.0 mph1.6 kmh 29.17 in987.8 mb 0.00 in0.0 mm 0.00 in0.0 mm 0.00 in0.0 mm
01:11 AM 66.3°F19.1°C 36.3°F2.4°C 33% Calm Calm -- 29.17 in987.8 mb 0.00 in0.0 mm 0.00 in0.0 mm 0.00 in0.0 mm
01:10 AM 66.4°F19.1°C 36.4°F2.4°C 33% Calm Calm -- 29.17 in987.8 mb 0.00 in0.0 mm 0.00 in0.0 mm 0.00 in0.0 mm
01:09 AM 66.5°F19.2°C 36.5°F2.5°C 33% Calm Calm -- 29.17 in987.8 mb 0.00 in0.0 mm 0.00 in0.0 mm 0.00 in0.0 mm
01:08 AM 66.6°F19.2°C 36.6°F2.6°C 33% Calm Calm -- 29.17 in987.8 mb 0.00 in0.0 mm 0.00 in0.0 mm 0.00 in0.0 mm
01:07 AM 66.7°F19.3°C 36.7°F2.6°C 33% Calm Calm -- 29.17 in987.8 mb 0.00 in0.0 mm 0.00 in0.0 mm 0.00 in0.0 mm
01:06 AM 66.7°F19.3°C 35.9°F2.2°C 32% Calm Calm -- 29.17 in987.8 mb 0.00 in0.0 mm 0.00 in0.0 mm 0.00 in0.0 mm
01:05 AM 66.7°F19.3°C 35.9°F2.2°C 32% Calm Calm -- 29.17 in987.8 mb 0.00 in0.0 mm 0.00 in0.0 mm 0.00 in0.0 mm
01:04 AM 66.7°F19.3°C 35.9°F2.2°C 32% Calm Calm -- 29.17 in987.8 mb 0.00 in0.0 mm 0.00 in0.0 mm 0.00 in0.0 mm
01:03 AM 66.6°F19.2°C 35.8°F2.1°C 32% Calm Calm 2.0 mph3.2 kmh 29.17 in987.8 mb 0.00 in0.0 mm 0.00 in0.0 mm 0.00 in0.0 mm
01:02 AM 66.6°F19.2°C 35.8°F2.1°C 32% Calm Calm 3.0 mph4.8 kmh 29.17 in987.8 mb 0.00 in0.0 mm 0.00 in0.0 mm 0.00 in0.0 mm
01:01 AM 66.6°F19.2°C 35.8°F2.1°C 32% Calm Calm 3.0 mph4.8 kmh 29.17 in987.8 mb 0.00 in0.0 mm 0.00 in0.0 mm 0.00 in0.0 mm
01:00 AM 66.6°F19.2°C 35.8°F2.1°C 32% Calm Calm 6.0 mph9.7 kmh 29.17 in987.8 mb 0.00 in0.0 mm 0.00 in0.0 mm 0.00 in0.0 mm
12:59 AM 66.7°F19.3°C 35.9°F2.2°C 32% Calm Calm 6.0 mph9.7 kmh 29.17 in987.8 mb 0.00 in0.0 mm 0.00 in0.0 mm 0.00 in0.0 mm
12:58 AM 66.7°F19.3°C 35.9°F2.2°C 32% Calm Calm 7.0 mph11.3 kmh 29.17 in987.8 mb 0.00 in0.0 mm 0.00 in0.0 mm 0.00 in0.0 mm
12:57 AM 66.7°F19.3°C 36.7°F2.6°C 33% Calm Calm 7.0 mph11.3 kmh 29.17 in987.8 mb 0.00 in0.0 mm 0.00 in0.0 mm 0.00 in0.0 mm
12:56 AM 66.8°F19.3°C 36.8°F2.7°C 33% Calm Calm 7.0 mph11.3 kmh 29.17 in987.8 mb 0.00 in0.0 mm 0.00 in0.0 mm 0.00 in0.0 mm
12:55 AM 66.8°F19.3°C 36.0°F2.2°C 32% Calm Calm 7.0 mph11.3 kmh 29.17 in987.8 mb 0.00 in0.0 mm 0.00 in0.0 mm 0.00 in0.0 mm
12:54 AM 66.7°F19.3°C 35.9°F2.2°C 32% 2.0 mph NW3.2 kmh NW 7.0 mph11.3 kmh 29.17 in987.8 mb 0.00 in0.0 mm 0.00 in0.0 mm 0.00 in0.0 mm
12:53 AM 66.7°F19.3°C 35.9°F2.2°C 32% 2.0 mph NW3.2 kmh NW 7.0 mph11.3 kmh 29.17 in987.8 mb 0.00 in0.0 mm 0.00 in0.0 mm 0.00 in0.0 mm
12:52 AM 66.6°F19.2°C 35.8°F2.1°C 32% 3.0 mph NW4.8 kmh NW 7.0 mph11.3 kmh 29.17 in987.8 mb 0.00 in0.0 mm 0.00 in0.0 mm 0.00 in0.0 mm
12:51 AM 66.6°F19.2°C 35.8°F2.1°C 32% 4.0 mph NW6.4 kmh NW 7.0 mph11.3 kmh 29.17 in987.8 mb 0.00 in0.0 mm 0.00 in0.0 mm 0.00 in0.0 mm
12:50 AM 66.6°F19.2°C 35.8°F2.1°C 32% 5.0 mph NW8.0 kmh NW 7.0 mph11.3 kmh 29.17 in987.8 mb 0.00 in0.0 mm 0.00 in0.0 mm 0.00 in0.0 mm
12:49 AM 66.7°F19.3°C 36.7°F2.6°C 33% 5.0 mph NW8.0 kmh NW 5.0 mph8.0 kmh 29.17 in987.8 mb 0.00 in0.0 mm 0.00 in0.0 mm 0.00 in0.0 mm
12:48 AM 66.8°F19.3°C 36.8°F2.7°C 33% 2.0 mph NW3.2 kmh NW 3.0 mph4.8 kmh 29.17 in987.8 mb 0.00 in0.0 mm 0.00 in0.0 mm 0.00 in0.0 mm
12:47 AM 66.9°F19.4°C 36.9°F2.7°C 33% Calm Calm 3.0 mph4.8 kmh 29.17 in987.8 mb 0.00 in0.0 mm 0.00 in0.0 mm 0.00 in0.0 mm
12:46 AM 67.1°F19.5°C 37.0°F2.8°C 33% Calm Calm 3.0 mph4.8 kmh 29.17 in987.8 mb 0.00 in0.0 mm 0.00 in0.0 mm 0.00 in0.0 mm
12:45 AM 67.2°F19.6°C 36.3°F2.4°C 32% Calm Calm 3.0 mph4.8 kmh 29.17 in987.8 mb 0.00 in0.0 mm 0.00 in0.0 mm 0.00 in0.0 mm
12:44 AM 67.2°F19.6°C 36.3°F2.4°C 32% Calm Calm 3.0 mph4.8 kmh 29.17 in987.8 mb 0.00 in0.0 mm 0.00 in0.0 mm 0.00 in0.0 mm
12:43 AM 67.3°F19.6°C 36.4°F2.4°C 32% Calm Calm 3.0 mph4.8 kmh 29.17 in987.8 mb 0.00 in0.0 mm 0.00 in0.0 mm 0.00 in0.0 mm
12:42 AM 67.3°F19.6°C 36.4°F2.4°C 32% Calm Calm 3.0 mph4.8 kmh 29.17 in987.8 mb 0.00 in0.0 mm 0.00 in0.0 mm 0.00 in0.0 mm
12:41 AM 67.4°F19.7°C 36.5°F2.5°C 32% Calm Calm 3.0 mph4.8 kmh 29.17 in987.8 mb 0.00 in0.0 mm 0.00 in0.0 mm 0.00 in0.0 mm
12:40 AM 67.5°F19.7°C 36.6°F2.6°C 32% Calm Calm 3.0 mph4.8 kmh 29.17 in987.8 mb 0.00 in0.0 mm 0.00 in0.0 mm 0.00 in0.0 mm
12:39 AM 67.5°F19.7°C 36.6°F2.6°C 32% 1.0 mph NW1.6 kmh NW 3.0 mph4.8 kmh 29.17 in987.8 mb 0.00 in0.0 mm 0.00 in0.0 mm 0.00 in0.0 mm
12:38 AM 67.5°F19.7°C 36.6°F2.6°C 32% 3.0 mph NW4.8 kmh NW 3.0 mph4.8 kmh 29.17 in987.8 mb 0.00 in0.0 mm 0.00 in0.0 mm 0.00 in0.0 mm
12:37 AM 67.5°F19.7°C 36.6°F2.6°C 32% 2.0 mph WNW3.2 kmh WNW 2.0 mph3.2 kmh 29.17 in987.8 mb 0.00 in0.0 mm 0.00 in0.0 mm 0.00 in0.0 mm
12:36 AM 67.6°F19.8°C 36.7°F2.6°C 32% Calm Calm 1.0 mph1.6 kmh 29.17 in987.8 mb 0.00 in0.0 mm 0.00 in0.0 mm 0.00 in0.0 mm
12:35 AM 67.5°F19.7°C 35.8°F2.1°C 31% Calm Calm 1.0 mph1.6 kmh 29.17 in987.8 mb 0.00 in0.0 mm 0.00 in0.0 mm 0.00 in0.0 mm
12:34 AM 67.5°F19.7°C 36.6°F2.6°C 32% Calm Calm 2.0 mph3.2 kmh 29.17 in987.8 mb 0.00 in0.0 mm 0.00 in0.0 mm 0.00 in0.0 mm
12:33 AM 67.4°F19.7°C 36.5°F2.5°C 32% Calm Calm 3.0 mph4.8 kmh 29.17 in987.8 mb 0.00 in0.0 mm 0.00 in0.0 mm 0.00 in0.0 mm
12:32 AM 67.5°F19.7°C 36.6°F2.6°C 32% Calm Calm 3.0 mph4.8 kmh 29.17 in987.8 mb 0.00 in0.0 mm 0.00 in0.0 mm 0.00 in0.0 mm
12:31 AM 67.6°F19.8°C 36.7°F2.6°C 32% Calm Calm 3.0 mph4.8 kmh 29.17 in987.8 mb 0.00 in0.0 mm 0.00 in0.0 mm 0.00 in0.0 mm
12:30 AM 67.6°F19.8°C 36.7°F2.6°C 32% Calm Calm 3.0 mph4.8 kmh 29.17 in987.8 mb 0.00 in0.0 mm 0.00 in0.0 mm 0.00 in0.0 mm
12:29 AM 67.8°F19.9°C 36.9°F2.7°C 32% Calm Calm 3.0 mph4.8 kmh 29.17 in987.8 mb 0.00 in0.0 mm 0.00 in0.0 mm 0.00 in0.0 mm
12:28 AM 67.9°F19.9°C 36.1°F2.3°C 31% Calm Calm 3.0 mph4.8 kmh 29.17 in987.8 mb 0.00 in0.0 mm 0.00 in0.0 mm 0.00 in0.0 mm
12:27 AM 68.0°F20.0°C 37.0°F2.8°C 32% Calm Calm 3.0 mph4.8 kmh 29.17 in987.8 mb 0.00 in0.0 mm 0.00 in0.0 mm 0.00 in0.0 mm
12:26 AM 68.1°F20.1°C 36.3°F2.4°C 31% 1.0 mph WNW1.6 kmh WNW 3.0 mph4.8 kmh 29.17 in987.8 mb 0.00 in0.0 mm 0.00 in0.0 mm 0.00 in0.0 mm
12:25 AM 68.2°F20.1°C 36.4°F2.4°C 31% 2.0 mph W3.2 kmh W 3.0 mph4.8 kmh 29.17 in987.8 mb 0.00 in0.0 mm 0.00 in0.0 mm 0.00 in0.0 mm
12:24 AM 68.3°F20.2°C 36.5°F2.5°C 31% 3.0 mph WNW4.8 kmh WNW 3.0 mph4.8 kmh 29.17 in987.8 mb 0.00 in0.0 mm 0.00 in0.0 mm 0.00 in0.0 mm
12:23 AM 68.5°F20.3°C 36.7°F2.6°C 31% Calm Calm 3.0 mph4.8 kmh 29.17 in987.8 mb 0.00 in0.0 mm 0.00 in0.0 mm 0.00 in0.0 mm
12:22 AM 68.5°F20.3°C 36.7°F2.6°C 31% Calm Calm 3.0 mph4.8 kmh 29.17 in987.8 mb 0.00 in0.0 mm 0.00 in0.0 mm 0.00 in0.0 mm
12:21 AM 68.6°F20.3°C 36.8°F2.7°C 31% Calm Calm 3.0 mph4.8 kmh 29.17 in987.8 mb 0.00 in0.0 mm 0.00 in0.0 mm 0.00 in0.0 mm
12:20 AM 68.6°F20.3°C 36.8°F2.7°C 31% Calm Calm 3.0 mph4.8 kmh 29.17 in987.8 mb 0.00 in0.0 mm 0.00 in0.0 mm 0.00 in0.0 mm
12:19 AM 68.7°F20.4°C 36.0°F2.2°C 30% Calm Calm 3.0 mph4.8 kmh 29.17 in987.8 mb 0.00 in0.0 mm 0.00 in0.0 mm 0.00 in0.0 mm
12:18 AM 68.7°F20.4°C 36.0°F2.2°C 30% Calm Calm 3.0 mph4.8 kmh 29.17 in987.8 mb 0.00 in0.0 mm 0.00 in0.0 mm 0.00 in0.0 mm
12:17 AM 68.7°F20.4°C 36.0°F2.2°C 30% Calm Calm 3.0 mph4.8 kmh 29.17 in987.8 mb 0.00 in0.0 mm 0.00 in0.0 mm 0.00 in0.0 mm
12:16 AM 68.7°F20.4°C 36.8°F2.7°C 31% 1.0 mph NW1.6 kmh NW 3.0 mph4.8 kmh 29.17 in987.8 mb 0.00 in0.0 mm 0.00 in0.0 mm 0.00 in0.0 mm
12:15 AM 68.8°F20.4°C 36.1°F2.3°C 30% 1.0 mph NW1.6 kmh NW 3.0 mph4.8 kmh 29.17 in987.8 mb 0.00 in0.0 mm 0.00 in0.0 mm 0.00 in0.0 mm
12:14 AM 68.8°F20.4°C 36.9°F2.7°C 31% 1.0 mph NW1.6 kmh NW 3.0 mph4.8 kmh 29.17 in987.8 mb 0.00 in0.0 mm 0.00 in0.0 mm 0.00 in0.0 mm
12:13 AM 68.9°F20.5°C 36.2°F2.3°C 30% 1.0 mph WNW1.6 kmh WNW 3.0 mph4.8 kmh 29.17 in987.8 mb 0.00 in0.0 mm 0.00 in0.0 mm 0.00 in0.0 mm
12:12 AM 68.9°F20.5°C 36.2°F2.3°C 30% 1.0 mph NW1.6 kmh NW 3.0 mph4.8 kmh 29.17 in987.8 mb 0.00 in0.0 mm 0.00 in0.0 mm 0.00 in0.0 mm
12:11 AM 68.9°F20.5°C 36.2°F2.3°C 30% Calm Calm 3.0 mph4.8 kmh 29.17 in987.8 mb 0.00 in0.0 mm 0.00 in0.0 mm 0.00 in0.0 mm
12:10 AM 69.0°F20.6°C 36.3°F2.4°C 30% 1.0 mph WNW1.6 kmh WNW 3.0 mph4.8 kmh 29.17 in987.8 mb 0.00 in0.0 mm 0.00 in0.0 mm 0.00 in0.0 mm
12:09 AM 69.1°F20.6°C 36.4°F2.4°C 30% 2.0 mph W3.2 kmh W 3.0 mph4.8 kmh 29.17 in987.8 mb 0.00 in0.0 mm 0.00 in0.0 mm 0.00 in0.0 mm
12:08 AM 69.1°F20.6°C 36.4°F2.4°C 30% 2.0 mph W3.2 kmh W 3.0 mph4.8 kmh 29.17 in987.8 mb 0.00 in0.0 mm 0.00 in0.0 mm 0.00 in0.0 mm
12:07 AM 69.2°F20.7°C 36.4°F2.4°C 30% 2.0 mph WNW3.2 kmh WNW 3.0 mph4.8 kmh 29.17 in987.8 mb 0.00 in0.0 mm 0.00 in0.0 mm 0.00 in0.0 mm
12:06 AM 69.3°F20.7°C 36.5°F2.5°C 30% 1.0 mph WNW1.6 kmh WNW 3.0 mph4.8 kmh 29.17 in987.8 mb 0.00 in0.0 mm 0.00 in0.0 mm 0.00 in0.0 mm
12:05 AM 69.4°F20.8°C 36.6°F2.6°C 30% 2.0 mph WNW3.2 kmh WNW 3.0 mph4.8 kmh 29.17 in987.8 mb 0.00 in0.0 mm 0.00 in0.0 mm 0.00 in0.0 mm
12:04 AM 69.4°F20.8°C 36.6°F2.6°C 30% Calm Calm 3.0 mph4.8 kmh 29.17 in987.8 mb 0.00 in0.0 mm 0.00 in0.0 mm 0.00 in0.0 mm
12:03 AM 69.4°F20.8°C 36.6°F2.6°C 30% 1.0 mph WNW1.6 kmh WNW 4.0 mph6.4 kmh 29.17 in987.8 mb 0.00 in0.0 mm 0.00 in0.0 mm 0.00 in0.0 mm
12:02 AM 69.4°F20.8°C 36.6°F2.6°C 30% 3.0 mph NW4.8 kmh NW 4.0 mph6.4 kmh 29.16 in987.5 mb 0.00 in0.0 mm 0.00 in0.0 mm 0.00 in0.0 mm
12:01 AM 69.4°F20.8°C 36.6°F2.6°C 30% 2.0 mph WNW3.2 kmh WNW 4.0 mph6.4 kmh 29.16 in987.5 mb 0.00 in0.0 mm 0.00 in0.0 mm 0.00 in0.0 mm
12:00 AM 69.5°F20.8°C 36.7°F2.6°C 30% 2.0 mph WNW3.2 kmh WNW 4.0 mph6.4 kmh 29.17 in987.8 mb 0.00 in0.0 mm 0.00 in0.0 mm 0.00 in0.0 mm